sensor_id;sensor_type;location;lat;lon;timestamp;pressure;altitude;pressure_sealevel;temperature;humidity
37878;BME280;23715;53.652;8.516;2022-07-29T00:04:02;102130.55;;;18.54;100.00
37878;BME280;23715;53.652;8.516;2022-07-29T00:09:02;102126.69;;;18.75;100.00
37878;BME280;23715;53.652;8.516;2022-07-29T00:14:02;102129.76;;;18.44;100.00
37878;BME280;23715;53.652;8.516;2022-07-29T00:19:02;102126.17;;;18.30;100.00
37878;BME280;23715;53.652;8.516;2022-07-29T00:24:02;102125.71;;;18.21;100.00
37878;BME280;23715;53.652;8.516;2022-07-29T00:29:03;102117.86;;;18.18;100.00
37878;BME280;23715;53.652;8.516;2022-07-29T00:34:02;102117.86;;;18.18;100.00
37878;BME280;23715;53.652;8.516;2022-07-29T00:39:02;102120.31;;;18.11;100.00
37878;BME280;23715;53.652;8.516;2022-07-29T00:44:02;102117.72;;;17.39;100.00
37878;BME280;23715;53.652;8.516;2022-07-29T00:49:01;102123.25;;;17.23;100.00
37878;BME280;23715;53.652;8.516;2022-07-29T00:54:01;102124.77;;;17.12;100.00
37878;BME280;23715;53.652;8.516;2022-07-29T00:59:01;102125.73;;;16.82;100.00
37878;BME280;23715;53.652;8.516;2022-07-29T01:04:00;102124.70;;;17.08;100.00
37878;BME280;23715;53.652;8.516;2022-07-29T01:09:00;102124.27;;;16.83;100.00
37878;BME280;23715;53.652;8.516;2022-07-29T01:14:01;102115.81;;;17.25;100.00
37878;BME280;23715;53.652;8.516;2022-07-29T01:19:13;102112.16;;;17.11;100.00
37878;BME280;23715;53.652;8.516;2022-07-29T01:24:14;102117.11;;;17.21;100.00
37878;BME280;23715;53.652;8.516;2022-07-29T01:29:30;102103.84;;;17.42;100.00
37878;BME280;23715;53.652;8.516;2022-07-29T01:34:29;102090.90;;;17.63;100.00
37878;BME280;23715;53.652;8.516;2022-07-29T01:39:31;102082.09;;;17.65;100.00
37878;BME280;23715;53.652;8.516;2022-07-29T01:44:37;102075.90;;;17.73;100.00
37878;BME280;23715;53.652;8.516;2022-07-29T01:49:35;102076.22;;;17.60;100.00
37878;BME280;23715;53.652;8.516;2022-07-29T01:54:42;102069.23;;;17.71;100.00
37878;BME280;23715;53.652;8.516;2022-07-29T01:59:41;102065.91;;;17.64;100.00
37878;BME280;23715;53.652;8.516;2022-07-29T02:04:42;102055.39;;;17.65;100.00
37878;BME280;23715;53.652;8.516;2022-07-29T02:09:45;102053.01;;;17.66;100.00
37878;BME280;23715;53.652;8.516;2022-07-29T02:14:50;102050.52;;;17.68;100.00
37878;BME280;23715;53.652;8.516;2022-07-29T02:19:51;102045.41;;;17.69;100.00
37878;BME280;23715;53.652;8.516;2022-07-29T02:24:51;102034.02;;;17.70;100.00
37878;BME280;23715;53.652;8.516;2022-07-29T02:29:52;102039.77;;;17.53;100.00
37878;BME280;23715;53.652;8.516;2022-07-29T02:34:52;102033.59;;;17.51;100.00
37878;BME280;23715;53.652;8.516;2022-07-29T02:39:53;102025.98;;;17.41;100.00
37878;BME280;23715;53.652;8.516;2022-07-29T02:44:54;102019.89;;;17.43;100.00
37878;BME280;23715;53.652;8.516;2022-07-29T02:50:00;102019.47;;;17.61;100.00
37878;BME280;23715;53.652;8.516;2022-07-29T03:00:14;102003.34;;;17.87;100.00
37878;BME280;23715;53.652;8.516;2022-07-29T03:05:18;101999.49;;;17.94;100.00
37878;BME280;23715;53.652;8.516;2022-07-29T03:10:18;102005.86;;;17.99;100.00
37878;BME280;23715;53.652;8.516;2022-07-29T03:15:18;101999.86;;;17.95;100.00
37878;BME280;23715;53.652;8.516;2022-07-29T03:20:18;102003.13;;;17.85;100.00
37878;BME280;23715;53.652;8.516;2022-07-29T03:25:18;102002.07;;;17.95;100.00
37878;BME280;23715;53.652;8.516;2022-07-29T03:30:18;102003.92;;;18.09;100.00
37878;BME280;23715;53.652;8.516;2022-07-29T03:35:18;102001.12;;;18.19;100.00
37878;BME280;23715;53.652;8.516;2022-07-29T03:40:22;102000.72;;;18.13;100.00
37878;BME280;23715;53.652;8.516;2022-07-29T03:45:22;101990.93;;;18.34;100.00
37878;BME280;23715;53.652;8.516;2022-07-29T03:50:23;101984.94;;;18.31;100.00
37878;BME280;23715;53.652;8.516;2022-07-29T03:55:22;101990.71;;;18.32;100.00
37878;BME280;23715;53.652;8.516;2022-07-29T04:00:23;101989.13;;;18.11;100.00
37878;BME280;23715;53.652;8.516;2022-07-29T04:05:23;101980.52;;;18.34;100.00
37878;BME280;23715;53.652;8.516;2022-07-29T04:10:22;101980.55;;;18.38;100.00
37878;BME280;23715;53.652;8.516;2022-07-29T04:15:22;101979.56;;;18.39;100.00
37878;BME280;23715;53.652;8.516;2022-07-29T04:20:22;101981.65;;;18.45;100.00
37878;BME280;23715;53.652;8.516;2022-07-29T04:25:21;101979.56;;;18.39;100.00
37878;BME280;23715;53.652;8.516;2022-07-29T04:30:21;101986.25;;;18.45;100.00
37878;BME280;23715;53.652;8.516;2022-07-29T04:35:20;101983.38;;;18.46;100.00
37878;BME280;23715;53.652;8.516;2022-07-29T04:40:20;101985.41;;;18.66;100.00
37878;BME280;23715;53.652;8.516;2022-07-29T04:45:20;101994.97;;;18.48;100.00
37878;BME280;23715;53.652;8.516;2022-07-29T04:50:19;101992.58;;;18.49;100.00
37878;BME280;23715;53.652;8.516;2022-07-29T04:55:19;101995.21;;;18.77;100.00
37878;BME280;23715;53.652;8.516;2022-07-29T05:00:18;101992.39;;;18.83;100.00
37878;BME280;23715;53.652;8.516;2022-07-29T05:05:18;101988.82;;;18.82;100.00
37878;BME280;23715;53.652;8.516;2022-07-29T05:10:17;101990.78;;;18.94;100.00
37878;BME280;23715;53.652;8.516;2022-07-29T05:15:17;101980.64;;;18.82;100.00
37878;BME280;23715;53.652;8.516;2022-07-29T05:20:17;101975.34;;;19.03;100.00
37878;BME280;23715;53.652;8.516;2022-07-29T05:25:17;101968.15;;;18.98;100.00
37878;BME280;23715;53.652;8.516;2022-07-29T05:30:16;101965.51;;;19.14;100.00
37878;BME280;23715;53.652;8.516;2022-07-29T05:35:16;101966.94;;;19.22;100.00
37878;BME280;23715;53.652;8.516;2022-07-29T05:40:15;101972.83;;;19.40;100.00
37878;BME280;23715;53.652;8.516;2022-07-29T05:45:17;101973.06;;;19.50;100.00
37878;BME280;23715;53.652;8.516;2022-07-29T05:50:19;101972.95;;;19.30;100.00
37878;BME280;23715;53.652;8.516;2022-07-29T05:55:19;101967.34;;;19.31;100.00
37878;BME280;23715;53.652;8.516;2022-07-29T06:00:18;101967.64;;;19.63;100.00
37878;BME280;23715;53.652;8.516;2022-07-29T06:05:18;101970.27;;;19.77;100.00
37878;BME280;23715;53.652;8.516;2022-07-29T06:10:17;101964.73;;;20.03;100.00
37878;BME280;23715;53.652;8.516;2022-07-29T06:15:17;101964.77;;;20.32;100.00
37878;BME280;23715;53.652;8.516;2022-07-29T06:20:16;101964.64;;;20.41;100.00
37878;BME280;23715;53.652;8.516;2022-07-29T06:25:16;101963.77;;;20.37;100.00
37878;BME280;23715;53.652;8.516;2022-07-29T06:30:16;101968.38;;;20.48;100.00
37878;BME280;23715;53.652;8.516;2022-07-29T06:35:16;101960.22;;;20.69;100.00
37878;BME280;23715;53.652;8.516;2022-07-29T06:40:15;101971.95;;;20.45;100.00
37878;BME280;23715;53.652;8.516;2022-07-29T06:45:36;101963.30;;;20.70;100.00
37878;BME280;23715;53.652;8.516;2022-07-29T06:50:36;101964.98;;;21.04;100.00
37878;BME280;23715;53.652;8.516;2022-07-29T06:55:37;101966.34;;;21.04;100.00
37878;BME280;23715;53.652;8.516;2022-07-29T07:00:36;101971.09;;;21.14;100.00
37878;BME280;23715;53.652;8.516;2022-07-29T07:05:36;101966.45;;;21.27;100.00
37878;BME280;23715;53.652;8.516;2022-07-29T07:10:36;101962.86;;;21.31;100.00
37878;BME280;23715;53.652;8.516;2022-07-29T07:15:35;101972.25;;;21.28;100.00
37878;BME280;23715;53.652;8.516;2022-07-29T07:20:35;101966.06;;;21.42;100.00
37878;BME280;23715;53.652;8.516;2022-07-29T07:25:35;101959.91;;;21.40;100.00
37878;BME280;23715;53.652;8.516;2022-07-29T07:30:35;101960.58;;;21.51;100.00
37878;BME280;23715;53.652;8.516;2022-07-29T07:35:34;101958.06;;;21.33;100.00
37878;BME280;23715;53.652;8.516;2022-07-29T07:40:34;101960.55;;;21.55;100.00
37878;BME280;23715;53.652;8.516;2022-07-29T07:45:34;101956.54;;;21.78;100.00
37878;BME280;23715;53.652;8.516;2022-07-29T07:50:35;101957.73;;;21.75;100.00
37878;BME280;23715;53.652;8.516;2022-07-29T07:55:39;101950.86;;;22.11;100.00
37878;BME280;23715;53.652;8.516;2022-07-29T08:00:36;101959.72;;;22.17;100.00
37878;BME280;23715;53.652;8.516;2022-07-29T08:05:36;101960.77;;;22.12;100.00
37878;BME280;23715;53.652;8.516;2022-07-29T08:10:35;101954.20;;;22.25;100.00
37878;BME280;23715;53.652;8.516;2022-07-29T08:15:55;101951.95;;;22.01;100.00
37878;BME280;23715;53.652;8.516;2022-07-29T08:20:59;101956.66;;;22.12;100.00
37878;BME280;23715;53.652;8.516;2022-07-29T08:25:58;101957.29;;;22.26;100.00
37878;BME280;23715;53.652;8.516;2022-07-29T08:30:58;101956.63;;;22.20;100.00
37878;BME280;23715;53.652;8.516;2022-07-29T08:35:58;101956.97;;;22.67;100.00
37878;BME280;23715;53.652;8.516;2022-07-29T08:40:57;101948.58;;;22.65;100.00
37878;BME280;23715;53.652;8.516;2022-07-29T08:49:53;101951.06;;;23.27;100.00
37878;BME280;23715;53.652;8.516;2022-07-29T08:54:53;101955.41;;;23.81;100.00
37878;BME280;23715;53.652;8.516;2022-07-29T08:59:53;101955.81;;;23.74;100.00
37878;BME280;23715;53.652;8.516;2022-07-29T09:04:53;101957.55;;;23.71;100.00
37878;BME280;23715;53.652;8.516;2022-07-29T09:09:53;101964.11;;;23.70;100.00
37878;BME280;23715;53.652;8.516;2022-07-29T09:15:09;101969.64;;;23.06;100.00
37878;BME280;23715;53.652;8.516;2022-07-29T09:20:15;101970.16;;;22.68;100.00
37878;BME280;23715;53.652;8.516;2022-07-29T09:25:11;101967.67;;;22.58;100.00
37878;BME280;23715;53.652;8.516;2022-07-29T09:30:13;101957.38;;;22.60;100.00
37878;BME280;23715;53.652;8.516;2022-07-29T09:35:25;101959.14;;;22.53;100.00
37878;BME280;23715;53.652;8.516;2022-07-29T09:40:27;101947.20;;;22.65;100.00
37878;BME280;23715;53.652;8.516;2022-07-29T09:45:30;101955.61;;;22.82;100.00
37878;BME280;23715;53.652;8.516;2022-07-29T09:50:38;101951.14;;;22.85;100.00
37878;BME280;23715;53.652;8.516;2022-07-29T09:55:51;101945.20;;;23.15;100.00
37878;BME280;23715;53.652;8.516;2022-07-29T10:00:53;101940.66;;;23.23;100.00
37878;BME280;23715;53.652;8.516;2022-07-29T10:06:11;101944.86;;;23.29;100.00
37878;BME280;23715;53.652;8.516;2022-07-29T10:11:14;101946.94;;;23.42;100.00
37878;BME280;23715;53.652;8.516;2022-07-29T10:16:16;101945.22;;;23.56;100.00
37878;BME280;23715;53.652;8.516;2022-07-29T10:21:17;101942.98;;;23.70;100.00
37878;BME280;23715;53.652;8.516;2022-07-29T10:26:19;101943.77;;;23.75;100.00
37878;BME280;23715;53.652;8.516;2022-07-29T10:31:24;101940.61;;;23.42;100.00
37878;BME280;23715;53.652;8.516;2022-07-29T10:36:54;101933.80;;;23.63;100.00
37878;BME280;23715;53.652;8.516;2022-07-29T10:42:11;101934.09;;;23.83;100.00
37878;BME280;23715;53.652;8.516;2022-07-29T10:47:24;101928.81;;;23.92;100.00
37878;BME280;23715;53.652;8.516;2022-07-29T10:52:45;101923.83;;;24.24;100.00
37878;BME280;23715;53.652;8.516;2022-07-29T10:57:29;101920.55;;;24.35;100.00
37878;BME280;23715;53.652;8.516;2022-07-29T11:08:27;101902.89;;;25.29;100.00
37878;BME280;23715;53.652;8.516;2022-07-29T11:23:00;101899.70;;;25.87;100.00
37878;BME280;23715;53.652;8.516;2022-07-29T11:28:10;101897.78;;;25.75;100.00
37878;BME280;23715;53.652;8.516;2022-07-29T11:33:26;101885.89;;;25.74;100.00
37878;BME280;23715;53.652;8.516;2022-07-29T11:38:25;101885.47;;;26.01;100.00
37878;BME280;23715;53.652;8.516;2022-07-29T11:43:50;101892.91;;;25.77;100.00
37878;BME280;23715;53.652;8.516;2022-07-29T11:48:57;101878.92;;;25.85;100.00
37878;BME280;23715;53.652;8.516;2022-07-29T11:53:58;101874.77;;;26.09;100.00
37878;BME280;23715;53.652;8.516;2022-07-29T11:59:06;101861.22;;;26.41;100.00
37878;BME280;23715;53.652;8.516;2022-07-29T12:04:09;101859.17;;;26.59;100.00
37878;BME280;23715;53.652;8.516;2022-07-29T12:09:09;101871.16;;;26.82;100.00
37878;BME280;23715;53.652;8.516;2022-07-29T12:14:30;101863.92;;;26.87;100.00
37878;BME280;23715;53.652;8.516;2022-07-29T12:19:41;101863.71;;;26.82;100.00
37878;BME280;23715;53.652;8.516;2022-07-29T12:24:44;101860.92;;;27.02;100.00
37878;BME280;23715;53.652;8.516;2022-07-29T12:29:59;101854.92;;;27.19;100.00
37878;BME280;23715;53.652;8.516;2022-07-29T12:35:07;101856.65;;;27.42;100.00
37878;BME280;23715;53.652;8.516;2022-07-29T12:40:05;101860.08;;;27.60;100.00
37878;BME280;23715;53.652;8.516;2022-07-29T12:45:07;101848.23;;;27.85;100.00
37878;BME280;23715;53.652;8.516;2022-07-29T12:50:13;101845.50;;;27.78;100.00
37878;BME280;23715;53.652;8.516;2022-07-29T12:55:38;101839.52;;;27.65;100.00
37878;BME280;23715;53.652;8.516;2022-07-29T13:00:24;101841.71;;;27.57;100.00
37878;BME280;23715;53.652;8.516;2022-07-29T13:05:38;101845.12;;;27.52;100.00
37878;BME280;23715;53.652;8.516;2022-07-29T13:10:27;101846.28;;;27.54;100.00
37878;BME280;23715;53.652;8.516;2022-07-29T13:15:29;101842.27;;;27.50;100.00
37878;BME280;23715;53.652;8.516;2022-07-29T13:20:30;101836.24;;;27.66;100.00
37878;BME280;23715;53.652;8.516;2022-07-29T13:25:32;101833.09;;;27.56;98.63
37878;BME280;23715;53.652;8.516;2022-07-29T13:30:33;101837.27;;;27.72;100.00
37878;BME280;23715;53.652;8.516;2022-07-29T13:35:34;101840.84;;;27.34;100.00
37878;BME280;23715;53.652;8.516;2022-07-29T13:40:34;101829.70;;;27.54;100.00
37878;BME280;23715;53.652;8.516;2022-07-29T13:45:35;101827.16;;;27.52;100.00
37878;BME280;23715;53.652;8.516;2022-07-29T13:50:35;101819.66;;;27.66;99.01
37878;BME280;23715;53.652;8.516;2022-07-29T13:55:36;101815.33;;;27.61;99.62
37878;BME280;23715;53.652;8.516;2022-07-29T14:00:36;101820.73;;;27.42;98.76
37878;BME280;23715;53.652;8.516;2022-07-29T14:05:36;101822.09;;;27.65;100.00
37878;BME280;23715;53.652;8.516;2022-07-29T14:10:37;101803.97;;;27.76;100.00
37878;BME280;23715;53.652;8.516;2022-07-29T14:15:37;101806.37;;;27.81;100.00
37878;BME280;23715;53.652;8.516;2022-07-29T14:20:38;101810.42;;;27.63;100.00
37878;BME280;23715;53.652;8.516;2022-07-29T14:25:38;101808.23;;;27.56;100.00
37878;BME280;23715;53.652;8.516;2022-07-29T14:30:39;101807.71;;;27.72;100.00
37878;BME280;23715;53.652;8.516;2022-07-29T14:35:40;101807.95;;;27.64;97.46
37878;BME280;23715;53.652;8.516;2022-07-29T14:40:41;101806.36;;;27.50;96.29
37878;BME280;23715;53.652;8.516;2022-07-29T14:45:42;101795.72;;;27.85;100.00
37878;BME280;23715;53.652;8.516;2022-07-29T14:50:42;101807.39;;;27.55;92.50
37878;BME280;23715;53.652;8.516;2022-07-29T14:55:44;101800.51;;;27.49;94.92
37878;BME280;23715;53.652;8.516;2022-07-29T15:00:44;101795.36;;;27.59;98.54
37878;BME280;23715;53.652;8.516;2022-07-29T15:05:45;101791.62;;;27.62;99.05
37878;BME280;23715;53.652;8.516;2022-07-29T15:10:45;101789.08;;;27.61;97.94
37878;BME280;23715;53.652;8.516;2022-07-29T15:15:45;101791.12;;;27.72;100.00
37878;BME280;23715;53.652;8.516;2022-07-29T15:20:45;101791.11;;;27.56;94.19
37878;BME280;23715;53.652;8.516;2022-07-29T15:25:46;101789.99;;;27.64;93.49
37878;BME280;23715;53.652;8.516;2022-07-29T15:30:47;101793.13;;;27.74;93.64
37878;BME280;23715;53.652;8.516;2022-07-29T15:35:47;101794.03;;;27.68;93.42
37878;BME280;23715;53.652;8.516;2022-07-29T15:40:48;101790.95;;;27.51;94.68
37878;BME280;23715;53.652;8.516;2022-07-29T15:45:49;101793.95;;;27.27;96.73
37878;BME280;23715;53.652;8.516;2022-07-29T15:51:07;101790.68;;;27.43;98.94
37878;BME280;23715;53.652;8.516;2022-07-29T15:56:07;101786.32;;;27.16;96.12
37878;BME280;23715;53.652;8.516;2022-07-29T16:01:07;101789.79;;;27.20;98.78
37878;BME280;23715;53.652;8.516;2022-07-29T16:06:08;101788.88;;;27.11;98.70
37878;BME280;23715;53.652;8.516;2022-07-29T16:11:09;101783.36;;;27.11;100.00
37878;BME280;23715;53.652;8.516;2022-07-29T16:16:09;101787.44;;;27.01;100.00
37878;BME280;23715;53.652;8.516;2022-07-29T16:21:10;101779.41;;;26.93;100.00
37878;BME280;23715;53.652;8.516;2022-07-29T16:26:10;101778.48;;;26.90;100.00
37878;BME280;23715;53.652;8.516;2022-07-29T16:31:11;101780.48;;;26.92;100.00
37878;BME280;23715;53.652;8.516;2022-07-29T16:36:13;101776.91;;;26.78;100.00
37878;BME280;23715;53.652;8.516;2022-07-29T16:41:13;101772.55;;;26.80;100.00
37878;BME280;23715;53.652;8.516;2022-07-29T16:46:14;101776.77;;;26.60;100.00
37878;BME280;23715;53.652;8.516;2022-07-29T16:51:14;101767.92;;;26.54;100.00
37878;BME280;23715;53.652;8.516;2022-07-29T16:56:15;101769.42;;;26.56;100.00
37878;BME280;23715;53.652;8.516;2022-07-29T17:01:15;101774.31;;;26.67;100.00
37878;BME280;23715;53.652;8.516;2022-07-29T17:06:16;101769.73;;;26.57;100.00
37878;BME280;23715;53.652;8.516;2022-07-29T17:11:17;101771.44;;;26.58;100.00
37878;BME280;23715;53.652;8.516;2022-07-29T17:16:17;101769.75;;;26.44;100.00
37878;BME280;23715;53.652;8.516;2022-07-29T17:21:20;101764.03;;;26.39;100.00
37878;BME280;23715;53.652;8.516;2022-07-29T17:26:21;101759.29;;;26.30;100.00
37878;BME280;23715;53.652;8.516;2022-07-29T17:31:21;101761.30;;;26.25;100.00
37878;BME280;23715;53.652;8.516;2022-07-29T17:36:22;101757.72;;;26.18;100.00
37878;BME280;23715;53.652;8.516;2022-07-29T17:41:23;101757.72;;;26.18;100.00
37878;BME280;23715;53.652;8.516;2022-07-29T17:46:26;101752.52;;;26.06;100.00
37878;BME280;23715;53.652;8.516;2022-07-29T17:51:27;101751.76;;;26.21;100.00
37878;BME280;23715;53.652;8.516;2022-07-29T17:56:27;101751.76;;;26.21;100.00
37878;BME280;23715;53.652;8.516;2022-07-29T18:01:28;101759.61;;;26.18;100.00
37878;BME280;23715;53.652;8.516;2022-07-29T18:06:29;101757.07;;;26.29;100.00
37878;BME280;23715;53.652;8.516;2022-07-29T18:11:29;101753.35;;;26.26;100.00
37878;BME280;23715;53.652;8.516;2022-07-29T18:16:30;101761.94;;;26.14;100.00
37878;BME280;23715;53.652;8.516;2022-07-29T18:21:31;101758.26;;;25.98;100.00
37878;BME280;23715;53.652;8.516;2022-07-29T18:26:30;101751.45;;;25.80;100.00
37878;BME280;23715;53.652;8.516;2022-07-29T18:31:31;101758.30;;;25.60;100.00
37878;BME280;23715;53.652;8.516;2022-07-29T18:36:31;101756.93;;;25.54;100.00
37878;BME280;23715;53.652;8.516;2022-07-29T18:41:32;101753.73;;;25.57;100.00
37878;BME280;23715;53.652;8.516;2022-07-29T18:46:32;101759.57;;;25.64;100.00
37878;BME280;23715;53.652;8.516;2022-07-29T18:51:33;101758.71;;;25.50;100.00
37878;BME280;23715;53.652;8.516;2022-07-29T18:56:33;101757.97;;;25.52;100.00
37878;BME280;23715;53.652;8.516;2022-07-29T19:01:34;101751.42;;;25.54;100.00
37878;BME280;23715;53.652;8.516;2022-07-29T19:06:35;101758.28;;;25.47;100.00
37878;BME280;23715;53.652;8.516;2022-07-29T19:11:38;101775.84;;;25.15;100.00
37878;BME280;23715;53.652;8.516;2022-07-29T19:16:44;101789.01;;;25.02;100.00
37878;BME280;23715;53.652;8.516;2022-07-29T19:21:40;101792.52;;;24.83;100.00
37878;BME280;23715;53.652;8.516;2022-07-29T19:26:41;101785.58;;;24.69;100.00
37878;BME280;23715;53.652;8.516;2022-07-29T19:31:43;101796.66;;;24.65;100.00
37878;BME280;23715;53.652;8.516;2022-07-29T19:36:44;101805.08;;;24.46;100.00
37878;BME280;23715;53.652;8.516;2022-07-29T19:41:45;101809.96;;;24.51;100.00
37878;BME280;23715;53.652;8.516;2022-07-29T19:46:45;101817.30;;;24.65;100.00
37878;BME280;23715;53.652;8.516;2022-07-29T19:51:46;101833.77;;;24.59;100.00
37878;BME280;23715;53.652;8.516;2022-07-29T19:56:46;101833.63;;;24.73;100.00
37878;BME280;23715;53.652;8.516;2022-07-29T20:01:46;101841.61;;;24.97;100.00
37878;BME280;23715;53.652;8.516;2022-07-29T20:06:46;101855.06;;;24.67;100.00
37878;BME280;23715;53.652;8.516;2022-07-29T20:11:47;101860.27;;;24.45;100.00
37878;BME280;23715;53.652;8.516;2022-07-29T20:16:49;101874.16;;;24.26;100.00
37878;BME280;23715;53.652;8.516;2022-07-29T20:21:49;101874.16;;;24.26;100.00
37878;BME280;23715;53.652;8.516;2022-07-29T20:26:49;101876.67;;;24.10;100.00
37878;BME280;23715;53.652;8.516;2022-07-29T20:31:49;101878.83;;;23.93;100.00
37878;BME280;23715;53.652;8.516;2022-07-29T20:36:50;101874.37;;;23.77;100.00
37878;BME280;23715;53.652;8.516;2022-07-29T20:41:50;101875.16;;;24.18;100.00
37878;BME280;23715;53.652;8.516;2022-07-29T20:46:51;101868.50;;;24.06;100.00
37878;BME280;23715;53.652;8.516;2022-07-29T20:51:51;101863.92;;;23.76;100.00
37878;BME280;23715;53.652;8.516;2022-07-29T20:56:51;101862.24;;;23.75;100.00
37878;BME280;23715;53.652;8.516;2022-07-29T21:01:51;101860.89;;;23.86;100.00
37878;BME280;23715;53.652;8.516;2022-07-29T21:06:53;101871.05;;;23.19;100.00
37878;BME280;23715;53.652;8.516;2022-07-29T21:11:54;101873.48;;;23.18;100.00
37878;BME280;23715;53.652;8.516;2022-07-29T21:16:54;101872.14;;;23.14;100.00
37878;BME280;23715;53.652;8.516;2022-07-29T21:21:55;101872.80;;;23.02;100.00
37878;BME280;23715;53.652;8.516;2022-07-29T21:26:54;101864.45;;;22.95;100.00
37878;BME280;23715;53.652;8.516;2022-07-29T21:31:56;101860.39;;;22.91;100.00
37878;BME280;23715;53.652;8.516;2022-07-29T21:36:57;101856.94;;;22.93;100.00
37878;BME280;23715;53.652;8.516;2022-07-29T21:41:57;101860.20;;;22.77;100.00
37878;BME280;23715;53.652;8.516;2022-07-29T21:46:58;101864.13;;;22.45;100.00
37878;BME280;23715;53.652;8.516;2022-07-29T21:51:58;101861.19;;;22.66;100.00
37878;BME280;23715;53.652;8.516;2022-07-29T21:56:58;101851.86;;;22.90;100.00
37878;BME280;23715;53.652;8.516;2022-07-29T22:01:58;101843.86;;;22.84;100.00
37878;BME280;23715;53.652;8.516;2022-07-29T22:06:59;101845.12;;;22.77;100.00
37878;BME280;23715;53.652;8.516;2022-07-29T22:11:59;101846.36;;;22.75;100.00
37878;BME280;23715;53.652;8.516;2022-07-29T22:17:00;101854.67;;;22.81;100.00
37878;BME280;23715;53.652;8.516;2022-07-29T22:22:01;101866.22;;;22.77;100.00
37878;BME280;23715;53.652;8.516;2022-07-29T22:27:01;101870.05;;;22.53;100.00
37878;BME280;23715;53.652;8.516;2022-07-29T22:32:01;101861.63;;;22.73;100.00
37878;BME280;23715;53.652;8.516;2022-07-29T22:37:01;101866.25;;;22.39;100.00
37878;BME280;23715;53.652;8.516;2022-07-29T22:42:01;101863.11;;;22.46;100.00
37878;BME280;23715;53.652;8.516;2022-07-29T22:47:01;101858.39;;;22.36;100.00
37878;BME280;23715;53.652;8.516;2022-07-29T22:52:02;101859.68;;;22.21;100.00
37878;BME280;23715;53.652;8.516;2022-07-29T22:57:03;101867.20;;;21.77;100.00
37878;BME280;23715;53.652;8.516;2022-07-29T23:02:03;101870.62;;;22.02;100.00
37878;BME280;23715;53.652;8.516;2022-07-29T23:07:04;101868.64;;;22.15;100.00
37878;BME280;23715;53.652;8.516;2022-07-29T23:12:04;101855.92;;;22.22;100.00
37878;BME280;23715;53.652;8.516;2022-07-29T23:17:04;101843.42;;;22.19;100.00
37878;BME280;23715;53.652;8.516;2022-07-29T23:22:04;101842.27;;;22.14;100.00
37878;BME280;23715;53.652;8.516;2022-07-29T23:27:04;101834.30;;;22.31;100.00
37878;BME280;23715;53.652;8.516;2022-07-29T23:32:05;101834.61;;;22.32;100.00
37878;BME280;23715;53.652;8.516;2022-07-29T23:37:05;101832.48;;;22.38;100.00
37878;BME280;23715;53.652;8.516;2022-07-29T23:42:07;101830.36;;;22.30;100.00
37878;BME280;23715;53.652;8.516;2022-07-29T23:47:08;101826.18;;;22.15;100.00
37878;BME280;23715;53.652;8.516;2022-07-29T23:52:08;101823.04;;;22.22;100.00
37878;BME280;23715;53.652;8.516;2022-07-29T23:57:08;101810.84;;;22.29;100.00
